Time;durP1;ratioP1;P1;durP2;ratioP2;P2;SDS_P1;SDS_P2;PMS_P1;PMS_P2;Temp;Humidity;BMP_temperature;BMP_pressure;BME280_temperature;BME280_humidity;BME280_pressure;Samples;Min_cycle;Max_cycle;Signal;HPM_P1;HPM_P2
2022/08/28 00:02:20;;;;;;;18.38;6.72;;;;;;;14.98;74.26;101897.78;5093198;28;20031;-81
2022/08/28 00:04:45;;;;;;;22.73;6.93;;;;;;;15.00;74.61;101910.69;5093262;28;20035;-83
2022/08/28 00:07:10;;;;;;;18.05;6.18;;;;;;;15.03;74.74;101916.50;5093522;28;20493;-84
2022/08/28 00:09:36;;;;;;;16.70;6.13;;;;;;;15.02;74.80;101911.41;5093511;28;20095;-86
2022/08/28 00:12:03;;;;;;;17.75;6.63;;;;;;;15.03;74.92;101915.66;5075186;28;20475;-83
2022/08/28 00:14:28;;;;;;;15.02;6.43;;;;;;;14.86;74.98;101899.41;5092988;28;20060;-86
2022/08/28 00:16:54;;;;;;;16.73;7.00;;;;;;;14.83;75.06;101909.97;5092591;28;20048;-85
2022/08/28 00:19:21;;;;;;;19.60;6.90;;;;;;;14.90;75.16;101921.66;5092898;28;20032;-82
2022/08/28 00:21:47;;;;;;;19.95;6.75;;;;;;;14.82;75.26;101899.69;5093472;28;20023;-86
2022/08/28 00:24:13;;;;;;;19.88;6.35;;;;;;;14.80;75.66;101914.56;5093196;28;20157;-86
2022/08/28 00:29:23;;;;;;;21.02;6.80;;;;;;;14.67;75.93;101898.06;5093106;28;20035;-87
2022/08/28 00:31:48;;;;;;;21.70;7.18;;;;;;;14.57;75.99;101887.41;5093109;28;20028;-84
2022/08/28 00:34:14;;;;;;;20.33;7.57;;;;;;;14.49;76.15;101880.09;5092821;28;20020;-87
2022/08/28 00:36:40;;;;;;;18.27;7.43;;;;;;;14.61;76.49;101915.69;5093103;28;20470;-84
2022/08/28 00:39:06;;;;;;;20.17;7.40;;;;;;;14.55;76.91;101913.50;5074793;28;20016;-80
2022/08/28 00:41:33;;;;;;;16.48;6.75;;;;;;;14.50;77.19;101906.91;5093048;28;20893;-84
2022/08/28 00:44:15;;;;;;;16.42;6.82;;;;;;;14.30;77.19;101895.94;5092713;28;20520;-76
2022/08/28 00:46:42;;;;;;;16.20;6.97;;;;;;;14.31;77.88;101907.19;5092864;28;20028;-78
2022/08/28 00:49:08;;;;;;;18.50;6.95;;;;;;;14.31;77.76;101902.81;5092769;28;20032;-75
2022/08/28 00:54:22;;;;;;;18.60;6.82;;;;;;;14.40;78.35;101926.56;5092884;28;20035;-86
2022/08/28 00:56:48;;;;;;;18.05;6.88;;;;;;;14.39;78.41;101930.94;5092746;28;20028;-87
2022/08/28 00:59:16;;;;;;;16.95;6.65;;;;;;;14.29;78.52;101914.25;5092744;28;20385;-79
2022/08/28 01:01:44;;;;;;;21.30;6.53;;;;;;;14.19;78.74;101877.59;5092887;28;20020;-84
2022/08/28 01:04:15;;;;;;;14.77;6.40;;;;;;;14.41;78.75;101921.28;5092687;28;20032;-84
2022/08/28 01:06:41;;;;;;;;;;;;;;;14.43;77.19;101927.19;5093257;28;20093;-86
2022/08/28 01:09:07;;;;;;;17.52;6.53;;;;;;;14.38;79.01;101934.47;5074534;28;19912;-82
2022/08/28 01:11:33;;;;;;;12.15;6.22;;;;;;;14.33;79.32;101926.09;5092633;28;20120;-87
2022/08/28 01:14:01;;;;;;;14.30;6.65;;;;;;;14.35;79.28;101929.44;5092467;28;20063;-78
2022/08/28 01:16:26;;;;;;;18.20;7.18;;;;;;;14.39;79.43;101937.91;5092577;28;20111;-85
2022/08/28 01:18:53;;;;;;;18.58;7.20;;;;;;;14.27;79.67;101927.31;5092473;28;20031;-86
2022/08/28 01:21:40;;;;;;;19.02;7.30;;;;;;;14.39;79.07;101940.50;5092789;28;20161;-88
2022/08/28 01:24:13;;;;;;;19.75;7.25;;;;;;;14.35;79.86;101942.44;5092538;28;20028;-87
2022/08/28 01:26:39;;;;;;;18.02;6.55;;;;;;;14.30;80.04;101936.69;5093460;28;20023;-85
2022/08/28 01:29:07;;;;;;;16.75;7.10;;;;;;;14.17;80.04;101915.81;5096560;28;20052;-81
2022/08/28 01:31:33;;;;;;;22.45;7.15;;;;;;;14.19;80.53;101926.13;5096556;28;20027;-86
2022/08/28 01:33:59;;;;;;;17.13;7.10;;;;;;;14.17;80.46;101936.59;5096364;28;20032;-85
2022/08/28 01:36:27;;;;;;;16.00;6.40;;;;;;;14.17;80.80;101936.59;5096379;28;20028;-86
2022/08/28 01:39:00;;;;;;;18.92;6.45;;;;;;;14.21;80.73;101937.25;5096169;28;20027;-87
2022/08/28 01:41:25;;;;;;;13.63;6.65;;;;;;;14.04;80.94;101925.25;5096183;28;20043;-87
2022/08/28 01:43:52;;;;;;;17.55;6.70;;;;;;;14.16;80.73;101940.13;5096513;28;20029;-88
2022/08/28 01:46:18;;;;;;;14.90;6.18;;;;;;;14.12;81.46;101945.59;5096187;28;20020;-86
2022/08/28 01:48:43;;;;;;;16.73;6.63;;;;;;;14.09;81.09;101944.03;5095868;28;20097;-75
2022/08/28 01:51:10;;;;;;;21.65;7.50;;;;;;;14.01;81.52;101936.69;5096111;28;20024;-85
2022/08/28 01:53:36;;;;;;;15.13;6.50;;;;;;;14.01;81.19;101947.06;5095785;28;20111;-85
2022/08/28 01:56:07;;;;;;;16.45;6.60;;;;;;;13.98;81.55;101956.81;5095810;28;20467;-88
2022/08/28 01:58:32;;;;;;;17.38;5.75;;;;;;;13.95;81.51;101951.78;5096178;28;20026;-87
2022/08/28 02:00:58;;;;;;;18.38;6.68;;;;;;;13.82;81.83;101936.09;5096110;28;20024;-86
2022/08/28 02:03:23;;;;;;;17.23;6.30;;;;;;;13.89;81.54;101947.81;5077735;28;20070;-85
2022/08/28 02:05:49;;;;;;;20.00;6.32;;;;;;;13.73;81.81;101931.44;5095624;28;20016;-85
2022/08/28 02:08:14;;;;;;;19.73;6.55;;;;;;;13.76;82.30;101952.91;5095661;28;20028;-80
2022/08/28 02:10:42;;;;;;;21.63;6.30;;;;;;;13.56;82.60;101934.19;5095674;28;20043;-87
2022/08/28 02:13:08;;;;;;;22.42;6.63;;;;;;;13.68;82.66;101954.25;5095800;28;20506;-87
2022/08/28 02:15:35;;;;;;;17.80;6.53;;;;;;;13.60;83.42;101961.66;5095775;28;20020;-85
2022/08/28 02:18:01;;;;;;;19.85;6.38;;;;;;;13.54;83.47;101965.41;5095581;28;20031;-84
2022/08/28 02:20:27;;;;;;;15.30;6.18;;;;;;;13.48;83.81;101964.03;5095429;28;20028;-87
2022/08/28 02:22:54;;;;;;;21.10;7.38;;;;;;;13.18;83.83;101919.88;5095321;28;20020;-86
2022/08/28 02:25:20;;;;;;;17.45;6.72;;;;;;;13.34;84.17;101966.53;5095278;28;20024;-86
2022/08/28 02:27:45;;;;;;;15.40;6.43;;;;;;;13.33;84.73;101964.03;5095611;28;20024;-84
2022/08/28 02:30:12;;;;;;;17.90;6.30;;;;;;;13.28;84.78;101964.31;5095637;28;20107;-84
2022/08/28 02:32:37;;;;;;;15.55;6.50;;;;;;;13.17;85.01;101959.69;5095373;28;20077;-75
2022/08/28 02:35:05;;;;;;;17.27;6.85;;;;;;;13.12;85.36;101966.06;5095136;28;20024;-84
2022/08/28 02:37:31;;;;;;;18.63;6.55;;;;;;;13.11;85.85;101969.56;5094715;28;20024;-87
2022/08/28 02:39:57;;;;;;;13.02;6.13;;;;;;;13.11;85.93;101973.00;5094228;28;20035;-86
2022/08/28 02:42:23;;;;;;;17.52;6.90;;;;;;;13.13;86.04;101978.09;5095054;28;20035;-83
2022/08/28 02:44:48;;;;;;;19.63;6.32;;;;;;;13.06;86.11;101963.78;5095249;28;20050;-85
2022/08/28 02:47:17;;;;;;;16.17;6.85;;;;;;;13.08;86.29;101970.59;5095150;28;20031;-81
2022/08/28 02:49:43;;;;;;;19.23;6.57;;;;;;;13.11;86.01;101973.00;5075665;28;20044;-81
2022/08/28 02:52:09;;;;;;;480.67;227.60;;;;;;;13.12;86.38;101973.84;5074629;28;20028;-86
2022/08/28 02:54:37;;;;;;;648.25;316.55;;;;;;;13.11;85.93;101974.75;5074555;28;20399;-83
2022/08/28 02:57:02;;;;;;;85.43;37.28;;;;;;;13.09;86.47;101967.06;5074819;28;20055;-80
2022/08/28 02:59:28;;;;;;;64.38;26.92;;;;;;;13.09;86.36;101964.47;5074793;28;20412;-85
2022/08/28 03:01:54;;;;;;;43.05;16.73;;;;;;;12.77;86.79;101913.53;5074538;28;20020;-86
2022/08/28 03:04:19;;;;;;;28.20;8.98;;;;;;;13.03;86.93;101964.78;5074199;28;20032;-83
2022/08/28 03:06:45;;;;;;;17.38;6.82;;;;;;;12.88;87.17;101948.34;5074406;28;20024;-83
2022/08/28 03:09:10;;;;;;;18.20;7.80;;;;;;;12.86;87.07;101950.16;5074446;28;20032;-87
2022/08/28 03:11:36;;;;;;;18.27;6.85;;;;;;;12.79;87.21;101941.06;5074428;28;20020;-84
2022/08/28 03:14:02;;;;;;;14.45;6.55;;;;;;;12.81;87.48;101966.91;5074620;28;20399;-81
2022/08/28 03:16:28;;;;;;;14.70;6.85;;;;;;;12.75;88.02;101968.06;5074213;28;20104;-88
2022/08/28 03:18:53;;;;;;;17.27;6.47;;;;;;;12.68;88.16;101965.88;5074064;28;20032;-86
2022/08/28 03:21:18;;;;;;;18.23;7.25;;;;;;;12.67;88.60;101969.38;5055917;28;20032;-84
2022/08/28 03:23:44;;;;;;;15.35;6.63;;;;;;;12.52;88.74;101955.50;5074218;28;20376;-79
2022/08/28 03:26:12;;;;;;;18.00;6.57;;;;;;;12.48;88.91;101951.38;5073984;28;20052;-87
2022/08/28 03:28:41;;;;;;;16.05;6.55;;;;;;;12.39;89.36;101955.31;5073972;28;20029;-77
2022/08/28 03:31:08;;;;;;;15.90;6.85;;;;;;;12.39;89.69;101963.09;5055907;28;20021;-78
2022/08/28 03:33:34;;;;;;;16.48;6.78;;;;;;;12.48;89.50;101982.47;5073651;28;20078;-75
2022/08/28 03:36:00;;;;;;;17.05;7.22;;;;;;;12.47;89.64;101984.22;5073721;28;20032;-76
2022/08/28 03:38:26;;;;;;;14.98;6.45;;;;;;;12.45;89.56;101978.28;5073825;28;20048;-82
2022/08/28 03:40:52;;;;;;;16.77;6.75;;;;;;;12.46;89.59;101982.56;5073588;28;20020;-77
2022/08/28 03:43:20;;;;;;;15.48;6.07;;;;;;;12.31;89.94;101963.47;5073899;28;20107;-85
2022/08/28 03:46:01;;;;;;;13.57;6.22;;;;;;;12.44;89.79;101978.38;5073577;28;20031;-82
2022/08/28 03:48:31;;;;;;;15.73;6.15;;;;;;;12.45;89.62;101995.59;5081913;28;20105;-79
2022/08/28 03:50:57;;;;;;;16.73;6.40;;;;;;;12.44;90.09;101991.34;5093680;28;20048;-81
2022/08/28 03:53:25;;;;;;;15.80;6.78;;;;;;;12.40;89.93;101995.84;5093509;28;20066;-76
2022/08/28 03:55:51;;;;;;;15.50;6.85;;;;;;;12.31;89.89;101978.19;5094074;28;20028;-88
2022/08/28 03:58:17;;;;;;;18.73;7.10;;;;;;;12.27;90.10;101974.06;5093685;28;20077;-83
2022/08/28 04:00:44;;;;;;;16.05;6.88;;;;;;;12.34;90.25;101988.38;5093744;28;20039;-80
2022/08/28 04:03:12;;;;;;;13.02;6.45;;;;;;;12.19;90.02;101969.31;5075682;28;20236;-87
2022/08/28 04:05:42;;;;;;;21.20;7.07;;;;;;;12.23;90.23;101988.94;5093556;28;20027;-78
2022/08/28 04:08:11;;;;;;;15.93;7.05;;;;;;;12.23;90.18;101998.47;5093144;28;20361;-86
2022/08/28 04:10:37;;;;;;;19.00;7.30;;;;;;;12.18;90.50;101988.31;5093397;28;20046;-87
2022/08/28 04:13:02;;;;;;;17.60;7.75;;;;;;;12.17;90.79;101999.59;5093334;28;20526;-91
2022/08/28 04:15:28;;;;;;;19.58;7.35;;;;;;;12.03;91.13;101987.38;5093188;28;20475;-90
2022/08/28 04:17:54;;;;;;;21.55;7.60;;;;;;;12.02;90.89;101997.81;5093339;28;20111;-85
2022/08/28 04:20:19;;;;;;;20.63;7.38;;;;;;;11.84;90.75;101978.84;5093153;28;20119;-79
2022/08/28 04:22:46;;;;;;;17.25;6.93;;;;;;;11.89;90.94;101996.72;5093171;28;20036;-85
2022/08/28 04:25:13;;;;;;;16.30;6.55;;;;;;;11.71;91.24;101978.59;5093258;28;20027;-87
2022/08/28 04:27:39;;;;;;;22.38;7.90;;;;;;;11.74;91.15;101998.31;5093218;28;20024;-76
2022/08/28 04:30:05;;;;;;;15.05;7.20;;;;;;;11.67;92.16;101995.16;5093208;28;20027;-87
2022/08/28 04:32:34;;;;;;;15.60;7.15;;;;;;;11.58;91.61;102002.53;5074938;28;20035;-81
2022/08/28 04:34:59;;;;;;;16.02;7.00;;;;;;;11.38;91.83;101975.03;5093070;28;20119;-88
2022/08/28 04:37:25;;;;;;;13.90;6.90;;;;;;;11.51;92.01;102008.94;5092911;28;20169;-87
2022/08/28 04:39:50;;;;;;;16.10;7.35;;;;;;;11.38;92.20;101993.97;5092911;28;20024;-79
2022/08/28 04:42:16;;;;;;;21.40;7.78;;;;;;;11.30;93.31;101987.50;5074235;28;20047;-81
2022/08/28 04:44:41;;;;;;;22.85;8.05;;;;;;;11.33;93.27;101992.53;5093218;28;20478;-78
2022/08/28 04:47:07;;;;;;;14.70;7.63;;;;;;;11.30;93.19;101993.50;5092989;28;20021;-88
2022/08/28 04:49:34;;;;;;;18.85;8.20;;;;;;;11.39;92.94;102015.50;5075066;28;20072;-84
2022/08/28 04:51:59;;;;;;;13.65;7.05;;;;;;;11.29;92.70;102001.34;5072731;28;20052;-85
2022/08/28 04:54:25;;;;;;;15.75;7.65;;;;;;;11.12;93.33;101987.47;5072379;28;20108;-88
2022/08/28 04:56:50;;;;;;;17.65;7.60;;;;;;;11.37;93.87;102020.75;5072432;28;20028;-78
2022/08/28 04:59:16;;;;;;;25.15;7.70;;;;;;;11.35;94.03;102021.75;5072870;28;20033;-87
2022/08/28 05:01:42;;;;;;;14.95;7.47;;;;;;;11.33;93.55;102021.81;5075340;28;20024;-81
2022/08/28 05:04:10;;;;;;;16.23;7.03;;;;;;;11.25;93.64;102010.16;5079258;28;20021;-82
2022/08/28 05:06:42;;;;;;;16.50;7.63;;;;;;;11.22;93.73;102005.97;5079258;28;20032;-81
2022/08/28 05:09:07;;;;;;;18.27;7.80;;;;;;;11.29;94.08;102019.44;5079037;28;20032;-82
2022/08/28 05:11:33;;;;;;;18.42;7.38;;;;;;;11.37;93.76;102031.09;5079259;28;20032;-76
2022/08/28 05:13:59;;;;;;;14.48;7.32;;;;;;;11.36;94.26;102032.00;5079148;28;20372;-85
2022/08/28 05:16:24;;;;;;;15.10;8.05;;;;;;;11.37;94.08;102033.69;5079630;28;20024;-76
2022/08/28 05:18:50;;;;;;;17.70;7.35;;;;;;;11.41;94.23;102037.81;5079151;28;20460;-86
2022/08/28 05:21:21;;;;;;;16.33;7.15;;;;;;;11.39;94.22;102042.22;5079185;28;20024;-83
2022/08/28 05:23:48;;;;;;;19.88;8.65;;;;;;;11.41;94.17;102042.16;5078593;28;20031;-75
2022/08/28 05:26:16;;;;;;;18.33;8.38;;;;;;;11.41;94.82;102045.59;5078947;28;20103;-77
2022/08/28 05:28:42;;;;;;;17.80;7.80;;;;;;;11.40;94.22;102046.47;5079200;28;20099;-83
2022/08/28 05:31:12;;;;;;;21.92;8.55;;;;;;;11.39;94.32;102043.97;5079143;28;20532;-84
2022/08/28 05:33:38;;;;;;;16.95;8.23;;;;;;;11.47;94.16;102052.19;5078981;28;20047;-74
2022/08/28 05:36:05;;;;;;;15.10;8.23;;;;;;;11.45;94.15;102047.09;5078831;28;20025;-79
2022/08/28 05:38:33;;;;;;;21.05;8.77;;;;;;;11.55;95.16;102052.69;5078572;28;20407;-79
2022/08/28 05:40:58;;;;;;;15.38;7.75;;;;;;;11.55;94.65;102051.84;5060916;28;20464;-74
2022/08/28 05:43:24;;;;;;;16.08;8.02;;;;;;;11.33;94.77;102018.41;5078898;28;20051;-87
2022/08/28 05:46:00;;;;;;;18.33;7.85;;;;;;;11.64;94.29;102059.16;5078766;28;20507;-75
2022/08/28 05:48:28;;;;;;;18.00;8.23;;;;;;;11.69;93.98;102062.34;5077386;28;20094;-84
2022/08/28 05:50:54;;;;;;;17.60;8.80;;;;;;;11.75;93.98;102031.88;5078930;28;20029;-84
2022/08/28 05:53:19;;;;;;;19.98;8.90;;;;;;;12.93;91.79;102055.22;5078259;28;20429;-77
2022/08/28 05:55:45;;;;;;;20.13;8.43;;;;;;;14.42;85.31;102054.66;5078796;28;20494;-78
2022/08/28 05:58:28;;;;;;;19.08;7.80;;;;;;;15.89;78.86;102041.09;5078880;28;20119;-79
2022/08/28 06:00:54;;;;;;;16.23;7.35;;;;;;;17.10;73.06;102050.16;5078593;28;20059;-77
2022/08/28 06:03:20;;;;;;;17.88;6.43;;;;;;;17.98;69.68;102053.31;5074032;28;20059;-72
2022/08/28 06:05:45;;;;;;;15.00;6.70;;;;;;;18.82;66.03;102053.91;5075629;28;20021;-72
2022/08/28 06:08:12;;;;;;;15.90;6.65;;;;;;;19.53;63.05;102036.00;5079254;28;20032;-72
2022/08/28 06:10:44;;;;;;;18.35;6.78;;;;;;;20.34;62.02;102049.28;5060028;28;20491;-73
2022/08/28 06:13:09;;;;;;;16.80;6.20;;;;;;;20.83;57.91;102052.97;5077155;28;20074;-74
2022/08/28 06:15:41;;;;;;;16.42;5.90;;;;;;;21.46;57.51;102065.84;5075361;28;20029;-76
2022/08/28 06:18:06;;;;;;;18.42;6.03;;;;;;;22.22;54.54;102061.53;5075387;28;20020;-77
2022/08/28 06:20:36;;;;;;;17.55;6.15;;;;;;;23.23;56.07;102061.63;5057126;28;20040;-77
2022/08/28 06:23:02;;;;;;;14.80;5.43;;;;;;;23.62;49.72;102052.47;5075595;28;20060;-80
2022/08/28 06:25:27;;;;;;;12.55;5.28;;;;;;;24.05;49.08;102066.63;5075301;28;20105;-80
2022/08/28 06:27:52;;;;;;;16.88;5.47;;;;;;;24.16;47.67;102057.63;5075142;28;20052;-78
2022/08/28 06:30:18;;;;;;;15.57;5.13;;;;;;;24.35;47.39;102062.72;5075288;28;20074;-76
2022/08/28 06:32:43;;;;;;;13.07;4.90;;;;;;;24.62;46.07;102064.34;5075189;28;20032;-75
2022/08/28 06:35:08;;;;;;;13.00;5.10;;;;;;;24.44;46.37;102068.88;5074825;28;20119;-72
2022/08/28 06:37:33;;;;;;;12.88;4.97;;;;;;;24.20;46.19;102064.28;5074926;28;20104;-74
2022/08/28 06:39:59;;;;;;;11.73;5.15;;;;;;;24.19;45.93;102049.41;5056616;28;20071;-83
2022/08/28 06:42:24;;;;;;;13.73;4.70;;;;;;;24.40;46.21;102057.00;5075097;28;20024;-77
2022/08/28 06:44:49;;;;;;;12.85;4.90;;;;;;;24.50;45.96;102074.38;5074821;28;20391;-78
2022/08/28 06:47:15;;;;;;;17.70;5.82;;;;;;;24.55;45.19;102058.03;5074958;28;20029;-74
2022/08/28 06:49:40;;;;;;;15.82;5.00;;;;;;;24.67;44.86;102046.19;5074526;28;20119;-76
2022/08/28 06:52:05;;;;;;;13.07;4.93;;;;;;;25.02;44.34;102079.56;5074657;28;20035;-76
2022/08/28 06:54:31;;;;;;;11.95;4.78;;;;;;;25.19;43.82;102080.44;5074564;28;20097;-75
2022/08/28 06:56:56;;;;;;;15.32;4.45;;;;;;;25.34;43.53;102038.28;5074703;28;20090;-75
2022/08/28 06:59:21;;;;;;;17.80;4.30;;;;;;;26.18;43.43;102075.00;5074673;28;20032;-77
2022/08/28 07:01:47;;;;;;;12.43;4.22;;;;;;;26.16;41.75;102082.28;5074571;28;20043;-76
2022/08/28 07:04:15;;;;;;;15.80;3.97;;;;;;;26.28;43.89;102080.09;5074474;28;20107;-77
2022/08/28 07:06:44;;;;;;;10.55;4.10;;;;;;;26.41;43.19;102080.44;5074540;28;20032;-83
2022/08/28 07:09:10;;;;;;;15.57;3.95;;;;;;;26.34;42.52;102068.00;5074323;28;20433;-78
2022/08/28 07:11:36;;;;;;;14.38;4.35;;;;;;;25.34;44.66;102075.31;5074422;28;20020;-84
2022/08/28 07:14:02;;;;;;;13.57;4.10;;;;;;;23.49;46.99;102078.34;5074341;28;20391;-81
2022/08/28 07:16:36;;;;;;;13.32;4.55;;;;;;;22.02;51.79;102075.63;5074237;28;20028;-88
2022/08/28 07:19:03;;;;;;;11.10;3.70;;;;;;;20.94;52.84;102074.81;5074249;28;20361;-86
2022/08/28 07:21:30;;;;;;;10.57;3.78;;;;;;;20.17;56.13;102088.41;5056056;28;20107;-76
2022/08/28 07:23:55;;;;;;;12.45;3.60;;;;;;;19.53;59.14;102083.19;5074107;28;20017;-87
2022/08/28 07:26:23;;;;;;;14.60;4.03;;;;;;;19.20;61.42;102087.56;5073688;28;20090;-86
2022/08/28 07:28:49;;;;;;;15.15;3.92;;;;;;;18.77;61.41;102061.28;5074029;28;20035;-84
2022/08/28 07:31:18;;;;;;;14.57;3.63;;;;;;;18.61;62.65;102088.63;5074144;28;20103;-84
2022/08/28 07:33:44;;;;;;;18.13;4.45;;;;;;;18.39;63.20;102059.84;5074086;28;20033;-85
2022/08/28 07:36:13;;;;;;;10.20;3.47;;;;;;;18.70;65.04;102094.97;5073726;28;20422;-78
2022/08/28 07:38:39;;;;;;;13.05;4.00;;;;;;;18.49;62.46;102102.66;5073965;28;20426;-80
2022/08/28 07:41:16;;;;;;;14.07;4.15;;;;;;;18.25;62.86;102081.78;5073653;28;20016;-84
2022/08/28 07:46:37;;;;;;;14.25;4.13;;;;;;;18.05;63.89;102082.44;5031598;28;20440;-82
2022/08/28 07:49:04;;;;;;;15.85;4.07;;;;;;;18.08;63.63;102097.91;5031348;28;20493;-82
2022/08/28 07:51:29;;;;;;;14.48;3.35;;;;;;;18.27;64.22;102108.66;5031611;28;20041;-83
2022/08/28 07:53:56;;;;;;;13.73;3.72;;;;;;;18.24;63.92;102110.66;5031398;28;20064;-86
2022/08/28 07:56:23;;;;;;;12.35;3.15;;;;;;;18.36;63.71;102101.91;5031194;28;20037;-76
2022/08/28 07:58:48;;;;;;;15.23;3.28;;;;;;;18.36;61.94;102104.50;5031451;28;20038;-80
2022/08/28 08:01:16;;;;;;;13.52;3.08;;;;;;;18.35;61.45;102102.84;5031283;28;20033;-84
2022/08/28 08:03:42;;;;;;;15.35;3.10;;;;;;;18.48;61.98;102111.41;5031199;28;20049;-85
2022/08/28 08:06:09;;;;;;;14.57;3.45;;;;;;;18.53;61.19;102088.38;5031306;28;20061;-83
2022/08/28 08:08:35;;;;;;;10.70;2.92;;;;;;;18.86;61.00;102115.53;5031303;28;20033;-80
2022/08/28 08:11:07;;;;;;;12.43;3.30;;;;;;;18.83;61.12;102081.75;5031082;28;20091;-77
2022/08/28 08:13:34;;;;;;;13.43;3.20;;;;;;;19.03;59.67;102114.22;5013946;28;20485;-83
2022/08/28 08:16:11;;;;;;;11.18;3.25;;;;;;;19.15;60.42;102113.25;5030927;28;20045;-75
2022/08/28 08:18:37;;;;;;;13.70;3.13;;;;;;;19.18;59.26;102118.28;5031067;28;20025;-77
2022/08/28 08:21:05;;;;;;;11.07;2.85;;;;;;;19.06;60.10;102124.44;5030937;28;20068;-84
2022/08/28 08:23:33;;;;;;;13.30;2.92;;;;;;;18.83;58.61;102094.84;5061263;28;20044;-80
2022/08/28 08:26:04;;;;;;;13.88;2.90;;;;;;;18.84;57.88;102096.50;5072546;28;20028;-76
2022/08/28 08:28:31;;;;;;;13.18;2.92;;;;;;;18.95;58.35;102120.06;5072845;28;20032;-86
2022/08/28 08:31:08;;;;;;;10.98;2.67;;;;;;;18.89;58.66;102131.84;5072808;28;20108;-84
2022/08/28 08:33:36;;;;;;;11.35;3.08;;;;;;;18.60;58.39;102126.22;5072702;28;20068;-76
2022/08/28 08:36:02;;;;;;;13.68;2.58;;;;;;;18.40;59.29;102132.13;5071960;28;20025;-84
2022/08/28 08:38:29;;;;;;;11.80;2.33;;;;;;;18.39;59.69;102127.84;5072750;28;20116;-72
2022/08/28 08:40:55;;;;;;;11.57;2.58;;;;;;;18.55;59.69;102117.84;5072471;28;20012;-74
2022/08/28 08:43:21;;;;;;;13.90;2.47;;;;;;;18.71;57.90;102119.34;5072755;28;20086;-77
2022/08/28 08:45:48;;;;;;;12.00;2.33;;;;;;;18.69;57.41;102116.03;5072697;28;20025;-75
2022/08/28 08:48:25;;;;;;;10.25;2.63;;;;;;;18.62;58.08;102132.16;5066705;28;20040;-76
2022/08/28 08:50:52;;;;;;;9.32;2.47;;;;;;;18.46;57.68;102089.78;5073290;28;20070;-80
2022/08/28 08:53:29;;;;;;;10.32;2.53;;;;;;;18.77;57.43;102130.16;5072750;28;20484;-85
2022/08/28 08:55:57;;;;;;;8.45;2.80;;;;;;;18.96;57.41;102119.09;5072090;28;20051;-80
2022/08/28 08:58:44;;;;;;;8.65;2.55;;;;;;;19.18;56.88;102121.72;5072660;28;20016;-83
2022/08/28 09:01:27;;;;;;;6.70;2.28;;;;;;;19.37;56.60;102115.88;5072421;28;20035;-76
2022/08/28 09:03:59;;;;;;;11.00;2.63;;;;;;;19.36;55.16;102123.81;5072350;28;20116;-83
2022/08/28 09:06:31;;;;;;;10.73;2.63;;;;;;;19.51;55.26;102109.50;5072347;28;20128;-76
2022/08/28 09:09:00;;;;;;;9.07;2.63;;;;;;;19.48;53.96;102122.84;5072532;28;20021;-76
2022/08/28 09:11:49;;;;;;;9.45;2.35;;;;;;;19.40;55.19;102117.41;5072348;28;20032;-86
2022/08/28 09:14:40;;;;;;;8.02;2.20;;;;;;;19.60;55.51;102124.50;5061360;28;20044;-83
2022/08/28 09:17:07;;;;;;;9.20;2.33;;;;;;;19.70;53.28;102125.44;5072238;28;20031;-74
2022/08/28 09:19:33;;;;;;;6.25;1.77;;;;;;;19.66;53.31;102103.03;5072529;28;20388;-75
2022/08/28 09:21:59;;;;;;;10.05;2.45;;;;;;;19.71;52.79;102113.16;5072388;28;20025;-83
2022/08/28 09:24:29;;;;;;;7.65;2.42;;;;;;;19.88;53.17;102123.13;5072448;28;20035;-79
2022/08/28 09:26:56;;;;;;;10.45;2.83;;;;;;;20.04;53.46;102125.28;5072204;28;20048;-82
2022/08/28 09:29:29;;;;;;;7.70;2.40;;;;;;;19.98;52.94;102100.44;5072238;28;20029;-80
2022/08/28 09:31:54;;;;;;;12.02;2.70;;;;;;;20.27;52.94;102118.16;5072270;28;20376;-76
2022/08/28 09:34:28;;;;;;;7.10;2.10;;;;;;;20.24;51.82;102121.84;5072129;28;20038;-75
2022/08/28 09:36:57;;;;;;;10.90;2.65;;;;;;;20.07;52.43;102114.56;5072074;28;20492;-86
2022/08/28 09:39:26;;;;;;;6.90;2.50;;;;;;;20.10;53.17;102116.94;5072115;28;20021;-84
2022/08/28 09:45:15;;;;;;;10.52;2.53;;;;;;;19.47;54.52;102126.44;5072275;28;20074;-83
2022/08/28 09:47:51;;;;;;;10.95;2.80;;;;;;;19.47;55.11;102126.44;5072945;28;20388;-77
2022/08/28 09:50:43;;;;;;;11.23;3.08;;;;;;;19.41;54.46;102095.47;5075842;28;20038;-85
2022/08/28 09:53:08;;;;;;;11.48;2.80;;;;;;;19.70;54.53;102117.56;5075911;28;20033;-81
2022/08/28 09:55:54;;;;;;;9.05;2.40;;;;;;;19.85;53.01;102120.72;5075568;28;20162;-80
2022/08/28 09:58:22;;;;;;;10.63;2.60;;;;;;;20.02;52.37;102116.72;5075612;28;20035;-78
2022/08/28 10:01:09;;;;;;;9.02;2.35;;;;;;;20.13;53.73;102102.72;5075753;28;20426;-82
2022/08/28 10:03:49;;;;;;;10.45;2.67;;;;;;;20.57;52.79;102114.78;5075763;28;20032;-84
2022/08/28 10:06:23;;;;;;;10.23;2.42;;;;;;;20.81;51.04;102103.94;5075451;28;20025;-82
2022/08/28 10:08:57;;;;;;;10.38;2.50;;;;;;;20.99;51.44;102115.50;5075594;28;20054;-85
2022/08/28 10:11:40;;;;;;;7.65;2.25;;;;;;;21.13;51.70;102109.84;5075280;28;20035;-72
2022/08/28 10:14:31;;;;;;;7.75;1.98;;;;;;;21.32;49.26;102114.38;5075214;28;20024;-79
2022/08/28 10:17:06;;;;;;;9.40;2.42;;;;;;;21.45;49.45;102109.69;5075330;28;20024;-84
2022/08/28 10:20:09;;;;;;;8.48;2.28;;;;;;;21.56;49.62;102119.25;5075173;28;20020;-75
2022/08/28 10:22:56;;;;;;;13.00;2.70;;;;;;;21.54;49.77;102113.31;5075443;28;20028;-85
2022/08/28 10:25:45;;;;;;;8.80;2.60;;;;;;;21.57;49.65;102112.19;5075242;28;20451;-77
2022/08/28 10:28:55;;;;;;;5.45;1.92;;;;;;;21.46;50.16;102116.63;5057247;28;20039;-82
2022/08/28 10:31:41;;;;;;;10.02;2.85;;;;;;;21.16;49.86;102117.50;5013285;28;20034;-86
2022/08/28 10:34:26;;;;;;;7.65;2.33;;;;;;;20.92;50.54;102122.22;5012743;28;20044;-75
2022/08/28 10:37:09;;;;;;;10.48;2.42;;;;;;;20.57;51.74;102101.66;5012967;28;20159;-80
2022/08/28 10:39:54;;;;;;;9.48;2.05;;;;;;;20.71;51.80;102124.91;5013093;28;20030;-79
2022/08/28 10:42:25;;;;;;;8.20;2.15;;;;;;;20.59;50.42;102102.34;5013057;28;20044;-79
2022/08/28 10:45:20;;;;;;;;;;;;;;;20.75;51.70;102118.44;5013358;28;20398;-78
2022/08/28 10:47:53;;;;;;;7.55;1.95;;;;;;;20.59;49.69;102112.84;4952857;28;20009;-73
2022/08/28 10:50:26;;;;;;;8.65;2.22;;;;;;;20.84;50.31;102104.53;4974429;28;20042;-75
2022/08/28 10:52:59;;;;;;;8.73;2.20;;;;;;;21.23;49.27;102098.53;4973860;28;20453;-81
2022/08/28 10:55:33;;;;;;;9.52;2.17;;;;;;;21.51;47.45;102103.06;4973632;28;20542;-81
2022/08/28 10:58:05;;;;;;;8.00;2.00;;;;;;;21.84;47.82;102107.09;4973530;28;20051;-83
2022/08/28 11:00:32;;;;;;;11.77;2.60;;;;;;;21.76;47.34;102115.66;4972581;28;20039;-73
2022/08/28 11:03:07;;;;;;;8.50;2.50;;;;;;;21.63;48.18;102111.63;4973830;28;20027;-74
2022/08/28 11:05:39;;;;;;;7.63;2.10;;;;;;;21.53;51.09;102116.88;4973431;28;20186;-79
2022/08/28 11:08:09;;;;;;;9.68;2.05;;;;;;;21.54;49.24;102112.47;5012434;28;20030;-74
2022/08/28 11:10:50;;;;;;;8.17;2.17;;;;;;;21.38;48.16;102084.09;5012521;28;20437;-79
2022/08/28 11:13:40;;;;;;;5.43;1.92;;;;;;;21.56;46.82;102116.63;5012221;28;20030;-76
2022/08/28 11:16:19;;;;;;;8.90;2.33;;;;;;;21.48;47.32;102119.09;5012204;28;20465;-75
2022/08/28 11:19:16;;;;;;;7.00;1.90;;;;;;;21.46;47.53;102118.41;5012034;28;20504;-83
2022/08/28 11:21:45;;;;;;;7.20;1.77;;;;;;;21.53;46.00;102114.25;5012293;28;20046;-82
2022/08/28 11:24:41;;;;;;;7.07;2.28;;;;;;;21.50;46.22;102092.69;5054189;28;20448;-70
2022/08/28 11:27:26;;;;;;;6.38;2.13;;;;;;;21.66;45.81;102117.47;5094365;28;20027;-86
2022/08/28 11:29:59;;;;;;;6.70;1.98;;;;;;;21.81;45.64;102085.50;5093941;28;20024;-80
2022/08/28 11:32:27;;;;;;;7.10;1.95;;;;;;;22.06;43.78;102108.59;5094053;28;20032;-76
2022/08/28 11:34:58;;;;;;;5.28;1.70;;;;;;;22.11;44.55;102111.66;5094062;28;20066;-76
2022/08/28 11:37:45;;;;;;;11.07;2.40;;;;;;;22.25;44.44;102120.94;5093988;28;20087;-79
2022/08/28 11:40:39;;;;;;;6.10;1.90;;;;;;;22.30;43.88;102106.34;5093863;28;20433;-83
2022/08/28 11:43:14;;;;;;;9.40;1.80;;;;;;;22.56;43.35;102106.56;5093368;28;20047;-81